Latest Weather Observations for Bankstown

IDN60901

Issued at 3:51 pm EDT Saturday 22 February 2020 (issued every 10 minutes, with the page automatically refreshed every 10 minutes)

About weather observations | Map of Sydney area stations | Latest observations for Sydney area | Other Formats
Station Details ID: 066137 Name: BANKSTOWN AIRPORT AWS Lat: -33.92 Lon: 150.98 Height: 7.2 m
Data from the previous 72 hours. | See also: Recent months at Bankstown
Date/Time
EDT
Temp
°C
App
Temp
°C
Dew
Point
°C
Rel
Hum
%
Delta-T
°C
Wind Press
QNH
hPa
Press
MSL
hPa
Rain since
9am
mm
Dir  Spd
km/h
Gust
km/h
Spd
kts
Gust
kts
22/03:30pm 21.4 21.5 16.4 73 3.0 ESE 11 13 6 7 1023.2 1023.2 0.0
22/03:00pm 20.8 20.0 17.0 79 2.3 ENE 17 20 9 11 1023.4 1023.4 0.0
22/02:30pm 22.8 23.1 14.9 61 4.7 N 7 13 4 7 1023.4 1023.4 0.0
22/02:00pm 22.9 22.7 14.7 60 4.8 ESE 9 19 5 10 1023.7 1023.7 0.0
22/01:30pm 23.5 23.7 15.8 62 4.6 ESE 9 20 5 11 1023.9 1023.9 0.0
22/01:00pm 22.8 21.8 14.6 60 4.8 E 13 28 7 15 1024.2 1024.2 0.0
22/12:30pm 22.7 22.1 14.5 60 4.8 ESE 11 15 6 8 1024.6 1024.6 0.0
22/12:00pm 22.2 21.1 14.3 61 4.6 E 13 19 7 10 1024.8 1024.8 0.0
22/11:30am 22.0 20.6 14.4 62 4.5 SE 15 20 8 11 1024.8 1024.8 0.0
22/11:00am 22.2 20.1 13.5 57 5.0 ESE 17 28 9 15 1024.7 1024.7 0.0
22/10:30am 22.1 20.1 15.0 64 4.2 SSE 19 24 10 13 1024.5 1024.5 0.0
22/10:00am 21.3 21.1 15.6 70 3.4 S 11 15 6 8 1024.4 1024.4 0.0
22/09:30am 21.0 20.6 15.3 70 3.4 SSE 11 13 6 7 1024.1 1024.1 0.0
22/09:00am 19.9 20.7 14.7 72 3.0 SW 4 9 2 5 1024.1 1024.1 0.0
22/08:30am 19.3 19.5 14.6 74 2.7 WSW 7 9 4 5 1023.8 1023.8 0.0
22/08:00am 18.8 19.1 14.9 78 2.3 SW 7 11 4 6 1023.6 1023.6 0.0
22/07:30am 18.5 18.9 15.2 81 1.9 SSW 7 11 4 6 1023.2 1023.2 0.0
22/07:00am 18.3 18.4 15.4 83 1.7 SW 9 13 5 7 1022.7 1022.7 0.0
22/06:30am 18.2 17.8 15.3 83 1.7 SSW 11 15 6 8 1022.2 1022.2 0.0
22/06:00am 18.0 17.6 15.3 84 1.6 SSW 11 17 6 9 1022.1 1022.1 0.0
22/05:30am 18.0 17.0 15.6 86 1.4 S 15 20 8 11 1021.8 1021.8 0.0
22/05:00am 18.2 17.6 15.6 85 1.5 S 13 19 7 10 1021.7 1021.7 0.0
22/04:30am 18.2 17.2 15.6 85 1.5 S 15 19 8 10 1021.6 1021.6 0.0
22/04:00am 18.4 17.2 16.0 86 1.4 SSE 17 22 9 12 1021.5 1021.5 0.0
22/03:30am 18.3 17.4 15.9 86 1.4 S 15 19 8 10 1021.4 1021.4 0.0
22/03:00am 18.4 17.9 15.8 85 1.5 SSE 13 17 7 9 1021.3 1021.3 0.0
22/02:30am 18.5 16.8 15.7 84 1.7 S 19 28 10 15 1021.4 1021.4 0.0
22/02:00am 18.9 17.7 16.0 83 1.7 S 17 24 9 13 1021.3 1021.3 0.0
22/01:30am 18.7 17.8 15.8 83 1.7 S 15 26 8 14 1021.3 1021.3 0.0
22/01:00am 19.1 17.9 16.0 82 1.8 S 17 26 9 14 1021.2 1021.2 0.0
22/12:30am 19.9 18.7 16.0 78 2.3 SSW 17 24 9 13 1021.1 1021.1 0.0
22/12:00am 20.3 20.0 16.5 79 2.3 SE 13 17 7 9 1020.9 1020.9 0.0
 
Date/Time
EDT
Temp
°C
App
Temp
°C
Dew
Point
°C
Rel
Hum
%
Delta-T
°C
Wind Press
QNH
hPa
Press
MSL
hPa
Rain since
9am
mm
Dir  Spd
km/h
Gust
km/h
Spd
kts
Gust
kts
21/11:30pm 20.5 19.3 16.1 76 2.6 ESE 17 24 9 13 1020.7 1020.7 0.0
21/11:00pm 21.2 20.2 15.5 70 3.4 SE 15 22 8 12 1020.6 1020.6 0.0
21/10:30pm 21.1 19.7 15.6 71 3.3 SE 17 20 9 11 1020.5 1020.5 0.0
21/10:00pm 20.9 19.6 15.7 72 3.1 SE 17 20 9 11 1020.0 1020.0 0.0
21/09:30pm 20.9 18.6 15.7 72 3.1 SE 22 28 12 15 1019.7 1019.7 0.0
21/09:00pm 20.9 19.1 15.9 73 3.0 SE 20 28 11 15 1019.4 1019.4 0.0
21/08:30pm 21.2 19.0 16.0 72 3.1 SE 22 30 12 16 1019.0 1019.0 0.0
21/08:00pm 21.6 18.7 16.1 71 3.3 ESE 26 33 14 18 1018.5 1018.5 0.0
21/07:30pm 21.9 19.5 16.4 71 3.3 SE 24 30 13 16 1018.1 1018.1 0.0
21/07:00pm 22.4 20.2 16.0 67 3.9 SE 22 32 12 17 1017.6 1017.6 0.0
21/06:30pm 22.5 18.8 15.1 63 4.4 SE 28 33 15 18 1017.0 1017.0 0.0
21/06:00pm 23.4 21.0 15.5 61 4.7 ESE 22 32 12 17 1016.7 1016.7 0.0
21/05:30pm 23.5 20.2 15.0 59 5.1 ESE 26 33 14 18 1016.2 1016.2 0.0
21/05:00pm 23.6 19.9 14.9 58 5.2 SE 28 39 15 21 1015.9 1015.9 0.0
21/04:30pm 24.1 20.6 15.6 59 5.1 SE 28 33 15 18 1015.8 1015.8 0.0
21/04:00pm 24.2 22.0 14.9 56 5.5 SE 20 30 11 16 1015.8 1015.8 0.0
21/03:30pm 24.1 22.2 15.1 57 5.4 E 19 26 10 14 1015.7 1015.7 0.0
21/03:00pm 24.6 23.4 15.0 55 5.7 ESE 15 24 8 13 1015.7 1015.7 0.0
21/02:30pm 24.2 22.6 15.1 56 5.4 ESE 17 24 9 13 1016.0 1016.0 0.0
21/02:00pm 24.4 23.4 15.6 58 5.3 E 15 20 8 11 1016.0 1016.0 0.0
21/01:30pm 24.1 23.6 15.9 60 5.0 ESE 13 22 7 12 1016.3 1016.3 0.0
21/01:00pm 23.6 22.1 15.4 60 4.9 ESE 17 22 9 12 1016.5 1016.5 0.0
21/12:30pm 23.2 22.1 15.3 61 4.7 ESE 15 20 8 11 1016.6 1016.6 0.0
21/12:00pm 23.4 23.8 14.7 58 5.2 S 6 9 3 5 1016.5 1016.5 0.0
21/11:30am 23.2 23.5 15.0 60 4.9 W 7 9 4 5 1016.6 1016.6 0.0
21/11:00am 23.1 23.6 14.9 60 4.9 NW 6 11 3 6 1016.6 1016.6 0.0
21/10:30am 22.9 23.1 15.7 64 4.3 WNW 9 13 5 7 1016.7 1016.7 0.0
21/10:00am 22.3 22.7 15.4 65 4.1 SW 7 11 4 6 1016.6 1016.6 0.0
21/09:30am 21.8 22.4 15.2 66 3.9 NNW 6 9 3 5 1016.5 1016.5 0.0
21/09:00am 21.5 23.5 16.0 71 3.3 CALM 0 0 0 0 1016.5 1016.5 0.0
21/08:30am 20.8 21.7 16.0 74 2.9 SW 6 9 3 5 1016.4 1016.4 0.0
21/08:00am 19.5 20.9 15.4 77 2.4 WSW 2 9 1 5 1016.1 1016.1 0.0
21/07:30am 19.0 20.8 15.5 80 2.1 CALM 0 0 0 0 1015.8 1015.8 0.0
21/07:00am 18.8 20.4 14.9 78 2.3 CALM 0 0 0 0 1015.8 1015.8 0.0
21/06:30am 18.9 20.4 14.6 76 2.5 CALM 0 4 0 2 1015.2 1015.2 0.0
21/06:00am 19.0 20.5 14.7 76 2.5 CALM 0 0 0 0 1014.9 1014.9 0.0
21/05:30am 19.0 20.1 14.7 76 2.5 SW 2 7 1 4 1014.6 1014.6 0.0
21/05:00am 19.0 19.3 14.5 75 2.6 SW 6 7 3 4 1014.2 1014.2 0.0
21/04:30am 19.2 19.4 14.2 73 2.9 S 6 9 3 5 1014.0 1014.0 0.0
21/04:00am 19.4 20.8 14.4 73 2.9 CALM 0 4 0 2 1014.3 1014.3 0.0
21/03:30am 19.5 20.9 14.5 73 2.9 CALM 0 0 0 0 1014.3 1014.3 0.0
21/03:00am 19.6 21.0 14.4 72 3.0 CALM 0 0 0 0 1014.3 1014.3 0.0
21/02:30am 19.6 19.8 14.2 71 3.1 SW 6 7 3 4 1014.6 1014.6 0.0
21/02:00am 19.8 19.5 14.4 71 3.1 SW 9 9 5 5 1014.8 1014.8 0.0
21/01:30am 20.8 20.8 13.5 63 4.2 E 6 9 3 5 1014.8 1014.8 0.0
21/01:00am 20.8 20.4 13.0 61 4.4 E 7 9 4 5 1015.1 1015.1 0.0
21/12:30am 20.8 20.4 13.0 61 4.4 ESE 7 9 4 5 1015.1 1015.1 0.0
21/12:00am 20.8 20.1 13.3 62 4.3 E 9 11 5 6 1014.9 1014.9 0.0
 
Date/Time
EDT
Temp
°C
App
Temp
°C
Dew
Point
°C
Rel
Hum
%
Delta-T
°C
Wind Press
QNH
hPa
Press
MSL
hPa
Rain since
9am
mm
Dir  Spd
km/h
Gust
km/h
Spd
kts
Gust
kts
20/11:30pm 20.9 19.5 13.4 62 4.3 ESE 13 15 7 8 1014.9 1014.9 0.0
20/11:00pm 20.8 19.3 13.0 61 4.4 SE 13 15 7 8 1014.9 1014.9 0.0
20/10:30pm 20.9 19.4 13.1 61 4.4 ESE 13 17 7 9 1015.1 1015.1 0.0
20/10:00pm 20.7 19.5 12.9 61 4.4 SE 11 15 6 8 1014.8 1014.8 0.0
20/09:30pm 20.7 18.8 12.9 61 4.4 SE 15 19 8 10 1014.6 1014.6 0.0
20/09:00pm 20.7 18.6 12.4 59 4.7 ESE 15 20 8 11 1014.2 1014.2 0.0
20/08:30pm 20.7 18.5 13.2 62 4.3 SE 17 24 9 13 1013.9 1013.9 0.0
20/08:00pm 20.5 18.6 13.0 62 4.3 SE 15 22 8 12 1013.2 1013.2 0.0
20/07:30pm 20.8 18.0 13.3 62 4.3 ESE 20 26 11 14 1012.6 1012.6 0.0
20/07:00pm 21.2 18.4 13.1 60 4.6 SE 20 28 11 15 1012.1 1012.1 0.0
20/06:30pm 21.5 17.8 12.6 57 5.0 ESE 24 32 13 17 1011.9 1011.9 0.0
20/06:00pm 22.1 18.7 12.4 54 5.5 SE 22 32 12 17 1011.4 1011.4 0.0
20/05:30pm 22.7 18.6 12.6 53 5.8 SE 26 33 14 18 1011.2 1011.2 0.0
20/05:00pm 23.2 19.1 12.8 52 6.0 SE 26 33 14 18 1011.1 1011.1 0.0
20/04:30pm 23.9 20.4 13.4 51 6.1 SE 24 35 13 19 1010.8 1010.8 0.0
20/04:00pm 23.9 20.9 12.5 49 6.5 SE 20 32 11 17 1010.6 1010.6 0.0
20/03:30pm 24.3 20.8 13.5 51 6.3 SE 24 32 13 17 1010.5 1010.5 0.0
20/03:00pm 23.9 20.5 12.5 49 6.5 SE 22 32 12 17 1010.6 1010.6 0.0
20/02:30pm 24.0 20.6 12.6 49 6.5 SE 22 32 12 17 1010.7 1010.7 0.0
20/02:00pm 23.8 20.8 11.8 47 6.8 SE 19 28 10 15 1010.8 1010.8 0.0
20/01:30pm 24.2 22.1 12.5 48 6.7 SSE 15 19 8 10 1010.9 1010.9 0.0
20/01:00pm 23.6 21.5 11.3 46 6.9 SSE 13 28 7 15 1010.9 1010.9 0.0
20/12:30pm 22.9 21.3 11.6 49 6.3 SSE 11 19 6 10 1011.0 1011.0 0.0
20/12:00pm 24.1 22.8 13.6 52 6.1 S 13 19 7 10 1011.3 1011.3 0.0
20/11:30am 24.0 23.0 12.3 48 6.7 SSE 9 20 5 11 1011.3 1011.3 0.0
20/11:00am 22.8 21.8 12.4 52 5.9 S 9 19 5 10 1011.4 1011.4 0.0
20/10:30am 23.0 21.4 12.9 53 5.8 S 13 22 7 12 1011.4 1011.4 0.0
20/10:00am 21.3 20.4 12.7 58 4.9 SSE 9 13 5 7 1011.2 1011.2 0.0
20/09:30am 21.1 20.1 13.3 61 4.5 S 11 17 6 9 1010.9 1010.9 0.0
20/09:00am 20.5 20.0 13.9 66 3.8 SSW 9 11 5 6 1010.7 1010.7 0.0
20/08:30am 19.5 19.0 13.9 70 3.2 SW 9 13 5 7 1010.4 1010.4 0.0
20/08:00am 18.1 19.4 14.0 77 2.3 CALM 0 0 0 0 1010.2 1010.2 0.0
20/07:30am 16.7 18.4 15.1 90 0.9 CALM 0 0 0 0 1009.9 1009.9 0.0
20/07:00am 15.5 16.7 13.9 90 0.9 CALM 0 0 0 0 1009.4 1009.4 0.0
20/06:30am 15.7 16.9 13.9 89 1.0 CALM 0 0 0 0 1008.7 1008.7 0.0
20/06:00am 15.9 17.2 14.1 89 1.0 CALM 0 0 0 0 1008.4 1008.4 0.0
20/05:30am 15.9 15.9 14.3 90 0.9 WNW 7 9 4 5 1008.3 1008.3 0.0
20/05:00am 15.8 17.1 14.0 89 1.0 CALM 0 0 0 0 1007.8 1007.8 0.0
20/04:30am 16.3 17.7 14.3 88 1.1 CALM 0 0 0 0 1007.5 1007.5 0.0
20/04:00am 16.2 17.5 14.2 88 1.1 CALM 0 0 0 0 1007.3 1007.3 0.0
20/03:30am 16.3 17.8 14.7 90 0.9 CALM 0 0 0 0 1007.2 1007.2 0.0
20/03:00am 16.8 18.4 15.0 89 1.0 CALM 0 0 0 0 1007.4 1007.4 0.0
20/02:30am 17.2 18.7 14.7 85 1.4 CALM 0 0 0 0 1007.5 1007.5 0.0
20/02:00am 17.4 18.8 14.5 83 1.7 CALM 0 0 0 0 1007.6 1007.6 0.0
20/01:30am 17.9 19.3 14.4 80 2.0 CALM 0 0 0 0 1007.6 1007.6 0.0
20/01:00am 18.3 19.6 14.2 77 2.4 CALM 0 0 0 0 1007.7 1007.7 0.0
20/12:30am 18.5 18.7 13.1 71 3.0 SSW 4 7 2 4 1007.9 1007.9 0.0
20/12:00am 19.3 18.8 13.9 71 3.1 ESE 9 13 5 7 1007.8 1007.8 0.0
 
Date/Time
EDT
Temp
°C
App
Temp
°C
Dew
Point
°C
Rel
Hum
%
Delta-T
°C
Wind Press
QNH
hPa
Press
MSL
hPa
Rain since
9am
mm
Dir  Spd
km/h
Gust
km/h
Spd
kts
Gust
kts
19/11:30pm 19.2 19.4 11.7 62 4.1 SW 2 7 1 4 1007.9 1007.9 0.0
19/11:00pm 19.9 19.9 11.1 57 4.8 W 2 7 1 4 1007.7 1007.7 0.0
19/10:30pm 20.7 19.6 9.9 50 5.8 SW 6 7 3 4 1007.5 1007.5 0.0
19/10:00pm 21.7 20.6 8.6 43 6.9 WSW 4 11 2 6 1007.4 1007.4 0.0
19/09:30pm 22.5 20.1 8.6 41 7.4 W 11 17 6 9 1007.0 1007.0 0.0
19/09:00pm 23.2 19.5 8.1 38 8.0 W 17 26 9 14 1006.6 1006.6 0.0
19/08:30pm 23.9 19.8 7.9 36 8.4 WSW 19 33 10 18 1006.1 1006.1 0.0
19/08:00pm 24.1 19.9 8.1 36 8.5 WSW 20 35 11 19 1005.5 1005.5 0.0
19/07:30pm 24.8 20.8 8.3 35 8.8 WSW 19 30 10 16 1004.9 1004.9 0.0
19/07:00pm 25.6 21.0 8.1 33 9.4 SW 22 39 12 21 1004.4 1004.4 0.0
19/06:30pm 26.3 21.5 8.8 33 9.5 WSW 24 35 13 19 1003.8 1003.8 0.0
19/06:00pm 26.8 22.6 9.6 34 9.5 SW 22 33 12 18 1003.4 1003.4 0.0
19/05:30pm 27.1 22.3 9.0 32 9.9 SW 24 35 13 19 1003.1 1003.1 0.0
19/05:00pm 28.0 24.1 9.3 31 10.4 WSW 20 30 11 16 1003.0 1003.0 0.0
19/04:30pm 28.1 24.3 9.9 32 10.2 WSW 20 35 11 19 1002.6 1002.6 0.0
19/04:00pm 28.4 26.0 11.5 35 9.8 SW 15 28 8 15 1002.5 1002.5 0.0

Latest Capital City Observations: Canberra | Sydney | Melbourne | Brisbane | Adelaide | Perth | Hobart | Darwin

Other formats

Comma delimited format used in spreadsheet applications
http://www.bom.gov.au/fwo/IDN60901/IDN60901.94765.axf

JavaScript Object Notation format (JSON) in row-major order
http://www.bom.gov.au/fwo/IDN60901/IDN60901.94765.json

Data quality

Most of these data are generated automatically and are frequently updated. Quality checks on data are not normally performed. It is possible for incorrect values to appear. Refer to information at About Latest Weather Observations and please check the disclaimer before using these data.